sensor_id;sensor_type;location;lat;lon;timestamp;pressure;altitude;pressure_sealevel;temperature;humidity
4972;BME280;2501;51.214;6.768;2022-09-12T00:01:23;101107.22;;;15.73;100.00
4972;BME280;2501;51.214;6.768;2022-09-12T00:03:53;101108.06;;;15.70;100.00
4972;BME280;2501;51.214;6.768;2022-09-12T00:06:24;101107.22;;;15.73;100.00
4972;BME280;2501;51.214;6.768;2022-09-12T00:08:54;101106.06;;;15.71;100.00
4972;BME280;2501;51.214;6.768;2022-09-12T00:11:23;101102.88;;;15.69;100.00
4972;BME280;2501;51.214;6.768;2022-09-12T00:13:58;101100.56;;;15.60;100.00
4972;BME280;2501;51.214;6.768;2022-09-12T00:16:28;101104.97;;;15.57;100.00
4972;BME280;2501;51.214;6.768;2022-09-12T00:18:57;101091.75;;;15.65;100.00
4972;BME280;2501;51.214;6.768;2022-09-12T00:21:26;101101.75;;;15.63;100.00
4972;BME280;2501;51.214;6.768;2022-09-12T00:23:55;101085.06;;;15.55;100.00
4972;BME280;2501;51.214;6.768;2022-09-12T00:26:23;101087.06;;;15.51;100.00
4972;BME280;2501;51.214;6.768;2022-09-12T00:28:52;101092.25;;;15.49;100.00
4972;BME280;2501;51.214;6.768;2022-09-12T00:31:24;101084.72;;;15.43;100.00
4972;BME280;2501;51.214;6.768;2022-09-12T00:33:55;101088.31;;;15.43;100.00
4972;BME280;2501;51.214;6.768;2022-09-12T00:36:26;101079.50;;;15.52;100.00
4972;BME280;2501;51.214;6.768;2022-09-12T00:38:55;101082.66;;;15.54;100.00
4972;BME280;2501;51.214;6.768;2022-09-12T00:41:25;101075.13;;;15.51;100.00
4972;BME280;2501;51.214;6.768;2022-09-12T00:43:55;101071.13;;;15.52;100.00
4972;BME280;2501;51.214;6.768;2022-09-12T00:46:31;101075.47;;;15.53;100.00
4972;BME280;2501;51.214;6.768;2022-09-12T00:49:05;101075.50;;;15.49;100.00
4972;BME280;2501;51.214;6.768;2022-09-12T00:51:35;101067.94;;;15.46;100.00
4972;BME280;2501;51.214;6.768;2022-09-12T00:54:08;101076.34;;;15.43;100.00
4972;BME280;2501;51.214;6.768;2022-09-12T00:56:39;101068.00;;;15.39;100.00
4972;BME280;2501;51.214;6.768;2022-09-12T00:59:13;101067.25;;;15.32;100.00
4972;BME280;2501;51.214;6.768;2022-09-12T01:01:47;101059.63;;;15.39;100.00
4972;BME280;2501;51.214;6.768;2022-09-12T01:04:19;101051.22;;;15.43;100.00
4972;BME280;2501;51.214;6.768;2022-09-12T01:06:48;101060.78;;;15.45;100.00
4972;BME280;2501;51.214;6.768;2022-09-12T01:09:21;101059.63;;;15.39;100.00
4972;BME280;2501;51.214;6.768;2022-09-12T01:11:51;101060.78;;;15.42;100.00
4972;BME280;2501;51.214;6.768;2022-09-12T01:14:20;101062.41;;;15.39;100.00
4972;BME280;2501;51.214;6.768;2022-09-12T01:16:51;101063.25;;;15.36;100.00
4972;BME280;2501;51.214;6.768;2022-09-12T01:19:39;101059.25;;;15.34;100.00
4972;BME280;2501;51.214;6.768;2022-09-12T01:22:33;101062.47;;;15.32;100.00
4972;BME280;2501;51.214;6.768;2022-09-12T01:25:09;101053.75;;;15.27;100.00
4972;BME280;2501;51.214;6.768;2022-09-12T01:27:58;101055.75;;;15.23;100.00
4972;BME280;2501;51.214;6.768;2022-09-12T01:30:46;101054.13;;;15.25;100.00
4972;BME280;2501;51.214;6.768;2022-09-12T01:33:33;101042.59;;;15.27;100.00
4972;BME280;2501;51.214;6.768;2022-09-12T01:36:29;101049.38;;;15.22;100.00
4972;BME280;2501;51.214;6.768;2022-09-12T01:39:02;101042.28;;;15.14;100.00
4972;BME280;2501;51.214;6.768;2022-09-12T01:41:41;101039.88;;;15.16;100.00
4972;BME280;2501;51.214;6.768;2022-09-12T01:44:18;101043.50;;;15.13;100.00
4972;BME280;2501;51.214;6.768;2022-09-12T01:46:54;101033.94;;;15.10;100.00
4972;BME280;2501;51.214;6.768;2022-09-12T01:49:25;101036.69;;;15.14;100.00
4972;BME280;2501;51.214;6.768;2022-09-12T01:51:59;101031.94;;;15.11;100.00
4972;BME280;2501;51.214;6.768;2022-09-12T01:54:36;101037.91;;;15.09;100.00
4972;BME280;2501;51.214;6.768;2022-09-12T01:57:12;101029.56;;;15.06;100.00
4972;BME280;2501;51.214;6.768;2022-09-12T01:59:46;101029.94;;;15.11;100.00
4972;BME280;2501;51.214;6.768;2022-09-12T02:02:21;101026.78;;;15.06;100.00
4972;BME280;2501;51.214;6.768;2022-09-12T02:04:56;101020.00;;;15.07;100.00
4972;BME280;2501;51.214;6.768;2022-09-12T02:07:31;101023.59;;;15.07;100.00
4972;BME280;2501;51.214;6.768;2022-09-12T02:10:07;101021.25;;;14.99;100.00
4972;BME280;2501;51.214;6.768;2022-09-12T02:12:41;101017.28;;;15.00;100.00
4972;BME280;2501;51.214;6.768;2022-09-12T02:15:11;101007.34;;;14.95;100.00
4972;BME280;2501;51.214;6.768;2022-09-12T02:17:48;101020.16;;;14.86;100.00
4972;BME280;2501;51.214;6.768;2022-09-12T02:20:20;101012.53;;;14.97;100.00
4972;BME280;2501;51.214;6.768;2022-09-12T02:22:51;101020.56;;;14.84;100.00
4972;BME280;2501;51.214;6.768;2022-09-12T02:25:21;101026.16;;;14.81;100.00
4972;BME280;2501;51.214;6.768;2022-09-12T02:27:54;101016.19;;;14.80;100.00
4972;BME280;2501;51.214;6.768;2022-09-12T02:30:27;101013.03;;;14.74;100.00
4972;BME280;2501;51.214;6.768;2022-09-12T02:33:01;101008.72;;;14.62;100.00
4972;BME280;2501;51.214;6.768;2022-09-12T02:35:38;101008.38;;;14.57;100.00
4972;BME280;2501;51.214;6.768;2022-09-12T02:38:15;101002.34;;;14.69;100.00
4972;BME280;2501;51.214;6.768;2022-09-12T02:40:47;101004.75;;;14.63;100.00
4972;BME280;2501;51.214;6.768;2022-09-12T02:43:15;101003.56;;;14.61;100.00
4972;BME280;2501;51.214;6.768;2022-09-12T02:45:44;101009.94;;;14.61;100.00
4972;BME280;2501;51.214;6.768;2022-09-12T02:48:19;101001.91;;;14.71;100.00
4972;BME280;2501;51.214;6.768;2022-09-12T02:50:48;101002.78;;;14.60;100.00
4972;BME280;2501;51.214;6.768;2022-09-12T02:53:17;100990.84;;;14.56;100.00
4972;BME280;2501;51.214;6.768;2022-09-12T02:55:46;100995.25;;;14.54;100.00
4972;BME280;2501;51.214;6.768;2022-09-12T02:58:17;100988.84;;;14.60;100.00
4972;BME280;2501;51.214;6.768;2022-09-12T03:00:50;100988.81;;;14.64;100.00
4972;BME280;2501;51.214;6.768;2022-09-12T03:03:37;100986.16;;;14.46;100.00
4972;BME280;2501;51.214;6.768;2022-09-12T03:06:16;100990.47;;;14.51;100.00
4972;BME280;2501;51.214;6.768;2022-09-12T03:08:56;100989.28;;;14.52;100.00
4972;BME280;2501;51.214;6.768;2022-09-12T03:11:40;100983.78;;;14.41;100.00
4972;BME280;2501;51.214;6.768;2022-09-12T03:14:20;100986.91;;;14.50;100.00
4972;BME280;2501;51.214;6.768;2022-09-12T03:16:54;100993.25;;;14.51;100.00
4972;BME280;2501;51.214;6.768;2022-09-12T03:19:32;100981.34;;;14.47;100.00
4972;BME280;2501;51.214;6.768;2022-09-12T03:22:08;100983.34;;;14.43;100.00
4972;BME280;2501;51.214;6.768;2022-09-12T03:24:45;100975.03;;;14.32;100.00
4972;BME280;2501;51.214;6.768;2022-09-12T03:27:19;100981.00;;;14.41;100.00
4972;BME280;2501;51.214;6.768;2022-09-12T03:29:49;100978.19;;;14.41;100.00
4972;BME280;2501;51.214;6.768;2022-09-12T03:32:18;100988.50;;;14.48;100.00
4972;BME280;2501;51.214;6.768;2022-09-12T03:34:49;100993.69;;;14.46;100.00
4972;BME280;2501;51.214;6.768;2022-09-12T03:37:17;100987.31;;;14.49;100.00
4972;BME280;2501;51.214;6.768;2022-09-12T03:39:45;100983.00;;;14.37;100.00
4972;BME280;2501;51.214;6.768;2022-09-12T03:42:14;100992.53;;;14.40;100.00
4972;BME280;2501;51.214;6.768;2022-09-12T03:44:42;100988.16;;;14.42;100.00
4972;BME280;2501;51.214;6.768;2022-09-12T03:47:10;100980.59;;;14.32;100.00
4972;BME280;2501;51.214;6.768;2022-09-12T03:49:39;100986.19;;;14.36;100.00
4972;BME280;2501;51.214;6.768;2022-09-12T03:52:10;100985.78;;;14.34;100.00
4972;BME280;2501;51.214;6.768;2022-09-12T03:54:38;100979.84;;;14.25;100.00
4972;BME280;2501;51.214;6.768;2022-09-12T03:57:07;100991.75;;;14.36;100.00
4972;BME280;2501;51.214;6.768;2022-09-12T03:59:35;100981.38;;;14.40;100.00
4972;BME280;2501;51.214;6.768;2022-09-12T04:02:03;100969.06;;;14.34;100.00
4972;BME280;2501;51.214;6.768;2022-09-12T04:04:34;100976.25;;;14.35;100.00
4972;BME280;2501;51.214;6.768;2022-09-12T04:07:02;100975.84;;;14.29;100.00
4972;BME280;2501;51.214;6.768;2022-09-12T04:09:33;100978.25;;;14.20;100.00
4972;BME280;2501;51.214;6.768;2022-09-12T04:12:03;100963.94;;;14.21;100.00
4972;BME280;2501;51.214;6.768;2022-09-12T04:14:32;100962.69;;;14.33;100.00
4972;BME280;2501;51.214;6.768;2022-09-12T04:17:01;100966.28;;;14.34;100.00
4972;BME280;2501;51.214;6.768;2022-09-12T04:19:29;100965.88;;;14.28;100.00
4972;BME280;2501;51.214;6.768;2022-09-12T04:21:58;100971.44;;;14.32;100.00
4972;BME280;2501;51.214;6.768;2022-09-12T04:24:26;100967.06;;;14.27;100.00
4972;BME280;2501;51.214;6.768;2022-09-12T04:26:57;100969.47;;;14.29;100.00
4972;BME280;2501;51.214;6.768;2022-09-12T04:29:26;100967.50;;;14.26;100.00
4972;BME280;2501;51.214;6.768;2022-09-12T04:31:55;100957.97;;;14.19;100.00
4972;BME280;2501;51.214;6.768;2022-09-12T04:34:24;100961.16;;;14.21;100.00
4972;BME280;2501;51.214;6.768;2022-09-12T04:36:53;100968.28;;;14.26;100.00
4972;BME280;2501;51.214;6.768;2022-09-12T04:39:22;100965.56;;;14.19;100.00
4972;BME280;2501;51.214;6.768;2022-09-12T04:41:50;100958.38;;;14.18;100.00
4972;BME280;2501;51.214;6.768;2022-09-12T04:44:21;100962.31;;;14.24;100.00
4972;BME280;2501;51.214;6.768;2022-09-12T04:46:50;100960.72;;;14.30;100.00
4972;BME280;2501;51.214;6.768;2022-09-12T04:49:18;100960.31;;;14.28;100.00
4972;BME280;2501;51.214;6.768;2022-09-12T04:51:47;100955.97;;;14.20;100.00
4972;BME280;2501;51.214;6.768;2022-09-12T04:54:17;100951.63;;;14.15;100.00
4972;BME280;2501;51.214;6.768;2022-09-12T04:56:47;100946.03;;;14.26;100.00
4972;BME280;2501;51.214;6.768;2022-09-12T04:59:21;100947.19;;;14.29;100.00
4972;BME280;2501;51.214;6.768;2022-09-12T05:01:49;100953.56;;;14.26;100.00
4972;BME280;2501;51.214;6.768;2022-09-12T05:04:18;100947.56;;;14.34;100.00
4972;BME280;2501;51.214;6.768;2022-09-12T05:06:46;100947.09;;;14.53;100.00
4972;BME280;2501;51.214;6.768;2022-09-12T05:09:15;100947.41;;;14.62;100.00
4972;BME280;2501;51.214;6.768;2022-09-12T05:11:44;100952.25;;;14.55;100.00
4972;BME280;2501;51.214;6.768;2022-09-12T05:14:12;100953.00;;;14.66;100.00
4972;BME280;2501;51.214;6.768;2022-09-12T05:16:43;100953.41;;;14.61;100.00
4972;BME280;2501;51.214;6.768;2022-09-12T05:19:12;100947.03;;;14.64;100.00
4972;BME280;2501;51.214;6.768;2022-09-12T05:21:40;100941.06;;;14.58;100.00
4972;BME280;2501;51.214;6.768;2022-09-12T05:24:09;100942.19;;;14.72;100.00
4972;BME280;2501;51.214;6.768;2022-09-12T05:26:38;100947.34;;;14.77;100.00
4972;BME280;2501;51.214;6.768;2022-09-12T05:29:06;100936.50;;;14.89;100.00
4972;BME280;2501;51.214;6.768;2022-09-12T05:31:35;100941.66;;;14.91;100.00
4972;BME280;2501;51.214;6.768;2022-09-12T05:34:06;100946.00;;;14.95;100.00
4972;BME280;2501;51.214;6.768;2022-09-12T05:36:36;100945.66;;;14.86;100.00
4972;BME280;2501;51.214;6.768;2022-09-12T05:39:04;100947.16;;;14.98;100.00
4972;BME280;2501;51.214;6.768;2022-09-12T05:41:33;100949.78;;;15.23;100.00
4972;BME280;2501;51.214;6.768;2022-09-12T05:44:05;100949.78;;;15.23;100.00
4972;BME280;2501;51.214;6.768;2022-09-12T05:46:36;100949.38;;;15.24;100.00
4972;BME280;2501;51.214;6.768;2022-09-12T05:49:09;100949.75;;;15.26;100.00
4972;BME280;2501;51.214;6.768;2022-09-12T05:51:39;100955.66;;;15.35;100.00
4972;BME280;2501;51.214;6.768;2022-09-12T05:54:10;100960.03;;;15.36;100.00
4972;BME280;2501;51.214;6.768;2022-09-12T05:56:41;100960.38;;;15.38;100.00
4972;BME280;2501;51.214;6.768;2022-09-12T05:59:12;100965.88;;;15.49;100.00
4972;BME280;2501;51.214;6.768;2022-09-12T06:01:41;100971.84;;;15.54;100.00
4972;BME280;2501;51.214;6.768;2022-09-12T06:04:12;100968.13;;;15.65;100.00
4972;BME280;2501;51.214;6.768;2022-09-12T06:06:42;100984.13;;;15.64;100.00
4972;BME280;2501;51.214;6.768;2022-09-12T06:09:13;100982.84;;;15.69;100.00
4972;BME280;2501;51.214;6.768;2022-09-12T06:11:42;100989.19;;;15.73;100.00
4972;BME280;2501;51.214;6.768;2022-09-12T06:14:13;100987.06;;;15.87;100.00
4972;BME280;2501;51.214;6.768;2022-09-12T06:16:44;100996.19;;;15.88;100.00
4972;BME280;2501;51.214;6.768;2022-09-12T06:19:16;100995.47;;;15.84;100.00
4972;BME280;2501;51.214;6.768;2022-09-12T06:21:46;100993.75;;;15.93;100.00
4972;BME280;2501;51.214;6.768;2022-09-12T06:24:18;101007.00;;;15.86;100.00
4972;BME280;2501;51.214;6.768;2022-09-12T06:26:48;101003.41;;;15.85;100.00
4972;BME280;2501;51.214;6.768;2022-09-12T06:29:17;101000.22;;;15.87;100.00
4972;BME280;2501;51.214;6.768;2022-09-12T06:31:45;101006.16;;;15.89;100.00
4972;BME280;2501;51.214;6.768;2022-09-12T06:34:16;101007.19;;;16.05;100.00
4972;BME280;2501;51.214;6.768;2022-09-12T06:36:46;101005.28;;;15.99;100.00
4972;BME280;2501;51.214;6.768;2022-09-12T06:39:16;101006.13;;;15.92;100.00
4972;BME280;2501;51.214;6.768;2022-09-12T06:41:46;101008.84;;;16.03;100.00
4972;BME280;2501;51.214;6.768;2022-09-12T06:44:16;101004.72;;;16.15;100.00
4972;BME280;2501;51.214;6.768;2022-09-12T06:46:45;101006.13;;;16.30;100.00
4972;BME280;2501;51.214;6.768;2022-09-12T06:49:17;100999.47;;;16.17;100.00
4972;BME280;2501;51.214;6.768;2022-09-12T06:51:47;101005.72;;;16.28;100.00
4972;BME280;2501;51.214;6.768;2022-09-12T06:54:15;101011.56;;;16.40;100.00
4972;BME280;2501;51.214;6.768;2022-09-12T06:56:44;101000.63;;;16.57;100.00
4972;BME280;2501;51.214;6.768;2022-09-12T06:59:12;101010.03;;;16.70;100.00
4972;BME280;2501;51.214;6.768;2022-09-12T07:01:41;101012.81;;;16.70;100.00
4972;BME280;2501;51.214;6.768;2022-09-12T07:04:09;101019.16;;;16.74;100.00
4972;BME280;2501;51.214;6.768;2022-09-12T07:06:41;101019.41;;;16.83;100.00
4972;BME280;2501;51.214;6.768;2022-09-12T07:09:11;101015.75;;;16.89;100.00
4972;BME280;2501;51.214;6.768;2022-09-12T07:11:41;101012.16;;;16.89;100.00
4972;BME280;2501;51.214;6.768;2022-09-12T07:14:11;101012.09;;;16.92;100.00
4972;BME280;2501;51.214;6.768;2022-09-12T07:16:40;101025.81;;;16.83;100.00
4972;BME280;2501;51.214;6.768;2022-09-12T07:19:09;101022.38;;;16.99;100.00
4972;BME280;2501;51.214;6.768;2022-09-12T07:21:41;101034.41;;;16.96;100.00
4972;BME280;2501;51.214;6.768;2022-09-12T07:24:09;101024.53;;;16.88;100.00
4972;BME280;2501;51.214;6.768;2022-09-12T07:26:39;101035.09;;;16.77;100.00
4972;BME280;2501;51.214;6.768;2022-09-12T07:29:13;101034.94;;;16.87;100.00
4972;BME280;2501;51.214;6.768;2022-09-12T07:31:43;101030.50;;;16.90;100.00
4972;BME280;2501;51.214;6.768;2022-09-12T07:34:12;101030.66;;;17.06;100.00
4972;BME280;2501;51.214;6.768;2022-09-12T07:36:44;101018.31;;;17.03;100.00
4972;BME280;2501;51.214;6.768;2022-09-12T07:39:13;101032.13;;;17.14;100.00
4972;BME280;2501;51.214;6.768;2022-09-12T07:41:41;101029.56;;;17.27;100.00
4972;BME280;2501;51.214;6.768;2022-09-12T07:44:09;101023.63;;;17.48;100.00
4972;BME280;2501;51.214;6.768;2022-09-12T07:46:39;101015.09;;;17.55;100.00
4972;BME280;2501;51.214;6.768;2022-09-12T07:49:10;101015.34;;;17.64;100.00
4972;BME280;2501;51.214;6.768;2022-09-12T07:51:39;101014.78;;;17.49;100.00
4972;BME280;2501;51.214;6.768;2022-09-12T07:54:10;101012.50;;;17.68;100.00
4972;BME280;2501;51.214;6.768;2022-09-12T07:56:39;101023.06;;;17.80;100.00
4972;BME280;2501;51.214;6.768;2022-09-12T07:59:07;101024.00;;;17.73;100.00
4972;BME280;2501;51.214;6.768;2022-09-12T08:01:36;101035.44;;;17.82;100.00
4972;BME280;2501;51.214;6.768;2022-09-12T08:04:04;101036.25;;;17.60;100.00
4972;BME280;2501;51.214;6.768;2022-09-12T08:06:33;101040.06;;;17.69;100.00
4972;BME280;2501;51.214;6.768;2022-09-12T08:09:03;101029.47;;;17.80;100.00
4972;BME280;2501;51.214;6.768;2022-09-12T08:11:35;101024.66;;;17.81;100.00
4972;BME280;2501;51.214;6.768;2022-09-12T08:14:03;101031.53;;;17.76;100.00
4972;BME280;2501;51.214;6.768;2022-09-12T08:16:33;101031.19;;;17.74;100.00
4972;BME280;2501;51.214;6.768;2022-09-12T08:19:02;101038.13;;;17.89;100.00
4972;BME280;2501;51.214;6.768;2022-09-12T08:21:32;101040.63;;;18.04;100.00
4972;BME280;2501;51.214;6.768;2022-09-12T08:24:13;101046.13;;;18.11;100.00
4972;BME280;2501;51.214;6.768;2022-09-12T08:26:44;101057.28;;;18.14;100.00
4972;BME280;2501;51.214;6.768;2022-09-12T08:29:13;101054.63;;;18.27;100.00
4972;BME280;2501;51.214;6.768;2022-09-12T08:31:41;101056.34;;;18.40;100.00
4972;BME280;2501;51.214;6.768;2022-09-12T08:34:11;101049.72;;;18.51;100.00
4972;BME280;2501;51.214;6.768;2022-09-12T08:36:41;101053.66;;;18.57;100.00
4972;BME280;2501;51.214;6.768;2022-09-12T08:39:11;101056.38;;;18.60;100.00
4972;BME280;2501;51.214;6.768;2022-09-12T08:41:41;101048.16;;;18.50;100.00
4972;BME280;2501;51.214;6.768;2022-09-12T08:47:16;101045.94;;;19.32;100.00
4972;BME280;2501;51.214;6.768;2022-09-12T08:49:58;101044.59;;;19.37;100.00
4972;BME280;2501;51.214;6.768;2022-09-12T08:52:31;101049.41;;;19.56;100.00
4972;BME280;2501;51.214;6.768;2022-09-12T08:55:03;101050.59;;;19.88;100.00
4972;BME280;2501;51.214;6.768;2022-09-12T08:57:32;101052.63;;;19.87;100.00
4972;BME280;2501;51.214;6.768;2022-09-12T09:00:11;101058.25;;;19.71;100.00
4972;BME280;2501;51.214;6.768;2022-09-12T09:05:45;101057.53;;;19.99;100.00
4972;BME280;2501;51.214;6.768;2022-09-12T09:08:30;101054.72;;;19.83;100.00
4972;BME280;2501;51.214;6.768;2022-09-12T09:11:12;101057.53;;;19.83;100.00
4972;BME280;2501;51.214;6.768;2022-09-12T09:13:56;101058.66;;;19.86;100.00
4972;BME280;2501;51.214;6.768;2022-09-12T09:16:45;101057.69;;;19.92;100.00
4972;BME280;2501;51.214;6.768;2022-09-12T09:19:19;101055.66;;;19.93;100.00
4972;BME280;2501;51.214;6.768;2022-09-12T09:21:50;101056.69;;;20.15;100.00
4972;BME280;2501;51.214;6.768;2022-09-12T09:24:23;101059.19;;;20.25;100.00
4972;BME280;2501;51.214;6.768;2022-09-12T09:26:56;101057.91;;;20.30;100.00
4972;BME280;2501;51.214;6.768;2022-09-12T09:29:27;101061.16;;;20.12;100.00
4972;BME280;2501;51.214;6.768;2022-09-12T09:32:02;101055.03;;;20.01;100.00
4972;BME280;2501;51.214;6.768;2022-09-12T09:34:38;101044.88;;;20.20;100.00
4972;BME280;2501;51.214;6.768;2022-09-12T09:37:14;101045.13;;;20.42;100.00
4972;BME280;2501;51.214;6.768;2022-09-12T09:39:54;101043.38;;;20.60;100.00
4972;BME280;2501;51.214;6.768;2022-09-12T09:42:33;101043.81;;;20.59;100.00
4972;BME280;2501;51.214;6.768;2022-09-12T09:45:12;101044.19;;;20.86;100.00
4972;BME280;2501;51.214;6.768;2022-09-12T09:47:48;101046.88;;;20.90;100.00
4972;BME280;2501;51.214;6.768;2022-09-12T09:50:19;101042.53;;;20.89;100.00
4972;BME280;2501;51.214;6.768;2022-09-12T09:52:48;101043.75;;;20.88;100.00
4972;BME280;2501;51.214;6.768;2022-09-12T09:55:20;101039.25;;;21.03;100.00
4972;BME280;2501;51.214;6.768;2022-09-12T09:57:50;101036.13;;;21.26;100.00
4972;BME280;2501;51.214;6.768;2022-09-12T10:00:22;101042.91;;;21.29;100.00
4972;BME280;2501;51.214;6.768;2022-09-12T10:03:03;101035.78;;;21.37;100.00
4972;BME280;2501;51.214;6.768;2022-09-12T10:05:34;101039.25;;;21.41;100.00
4972;BME280;2501;51.214;6.768;2022-09-12T10:08:05;101032.81;;;21.65;100.00
4972;BME280;2501;51.214;6.768;2022-09-12T10:10:34;101029.41;;;21.70;100.00
4972;BME280;2501;51.214;6.768;2022-09-12T10:13:07;101033.06;;;21.58;100.00
4972;BME280;2501;51.214;6.768;2022-09-12T10:15:37;101032.22;;;21.83;100.00
4972;BME280;2501;51.214;6.768;2022-09-12T10:18:08;101028.59;;;21.83;100.00
4972;BME280;2501;51.214;6.768;2022-09-12T10:20:38;101024.63;;;21.93;100.00
4972;BME280;2501;51.214;6.768;2022-09-12T10:23:31;101037.22;;;21.66;100.00
4972;BME280;2501;51.214;6.768;2022-09-12T10:26:03;101026.91;;;21.73;100.00
4972;BME280;2501;51.214;6.768;2022-09-12T10:28:35;101026.31;;;22.03;100.00
4972;BME280;2501;51.214;6.768;2022-09-12T10:31:05;101032.53;;;21.98;100.00
4972;BME280;2501;51.214;6.768;2022-09-12T10:33:40;101032.34;;;22.14;100.00
4972;BME280;2501;51.214;6.768;2022-09-12T10:36:11;101021.13;;;22.01;100.00
4972;BME280;2501;51.214;6.768;2022-09-12T10:38:48;101020.69;;;21.90;100.00
4972;BME280;2501;51.214;6.768;2022-09-12T10:41:18;101012.78;;;22.20;100.00
4972;BME280;2501;51.214;6.768;2022-09-12T10:43:48;101011.50;;;22.33;100.00
4972;BME280;2501;51.214;6.768;2022-09-12T10:46:21;101010.25;;;22.34;100.00
4972;BME280;2501;51.214;6.768;2022-09-12T10:49:18;101004.38;;;22.50;100.00
4972;BME280;2501;51.214;6.768;2022-09-12T10:51:48;101007.13;;;22.63;100.00
4972;BME280;2501;51.214;6.768;2022-09-12T10:54:18;101005.50;;;22.53;100.00
4972;BME280;2501;51.214;6.768;2022-09-12T10:57:07;101002.41;;;22.60;100.00
4972;BME280;2501;51.214;6.768;2022-09-12T11:00:03;101000.25;;;22.64;100.00
4972;BME280;2501;51.214;6.768;2022-09-12T11:02:43;101005.22;;;22.82;100.00
4972;BME280;2501;51.214;6.768;2022-09-12T11:05:27;101008.31;;;22.75;100.00
4972;BME280;2501;51.214;6.768;2022-09-12T11:08:08;100991.84;;;23.04;100.00
4972;BME280;2501;51.214;6.768;2022-09-12T11:10:46;100998.97;;;22.87;100.00
4972;BME280;2501;51.214;6.768;2022-09-12T11:13:28;101000.13;;;22.98;100.00
4972;BME280;2501;51.214;6.768;2022-09-12T11:16:12;100985.09;;;23.10;100.00
4972;BME280;2501;51.214;6.768;2022-09-12T11:19:07;100993.44;;;23.14;100.00
4972;BME280;2501;51.214;6.768;2022-09-12T11:21:49;100982.75;;;22.69;100.00
4972;BME280;2501;51.214;6.768;2022-09-12T11:24:35;100976.44;;;22.96;100.00
4972;BME280;2501;51.214;6.768;2022-09-12T11:27:32;100973.22;;;23.25;100.00
4972;BME280;2501;51.214;6.768;2022-09-12T11:30:11;100972.06;;;23.04;100.00
4972;BME280;2501;51.214;6.768;2022-09-12T11:32:49;100965.50;;;23.16;100.00
4972;BME280;2501;51.214;6.768;2022-09-12T11:35:27;100964.88;;;23.12;100.00
4972;BME280;2501;51.214;6.768;2022-09-12T11:38:20;100966.78;;;23.33;100.00
4972;BME280;2501;51.214;6.768;2022-09-12T11:40:58;100971.66;;;23.24;100.00
4972;BME280;2501;51.214;6.768;2022-09-12T11:43:35;100963.56;;;23.44;100.00
4972;BME280;2501;51.214;6.768;2022-09-12T11:46:10;100966.56;;;23.59;100.00
4972;BME280;2501;51.214;6.768;2022-09-12T11:48:46;100964.34;;;23.44;100.00
4972;BME280;2501;51.214;6.768;2022-09-12T11:51:17;100961.13;;;23.33;100.00
4972;BME280;2501;51.214;6.768;2022-09-12T11:54:01;100962.78;;;23.62;100.00
4972;BME280;2501;51.214;6.768;2022-09-12T11:56:30;100955.09;;;23.44;100.00
4972;BME280;2501;51.214;6.768;2022-09-12T11:59:08;100951.59;;;23.40;100.00
4972;BME280;2501;51.214;6.768;2022-09-12T12:01:40;100953.19;;;23.50;100.00
4972;BME280;2501;51.214;6.768;2022-09-12T12:04:11;100956.34;;;23.70;100.00
4972;BME280;2501;51.214;6.768;2022-09-12T12:06:48;100952.28;;;23.98;100.00
4972;BME280;2501;51.214;6.768;2022-09-12T12:09:22;100949.25;;;24.11;100.00
4972;BME280;2501;51.214;6.768;2022-09-12T12:11:53;100948.78;;;24.31;100.00
4972;BME280;2501;51.214;6.768;2022-09-12T12:14:27;100953.03;;;24.35;100.00
4972;BME280;2501;51.214;6.768;2022-09-12T12:16:58;100944.56;;;24.26;100.00
4972;BME280;2501;51.214;6.768;2022-09-12T12:19:32;100940.16;;;24.25;100.00
4972;BME280;2501;51.214;6.768;2022-09-12T12:22:06;100936.38;;;24.28;100.00
4972;BME280;2501;51.214;6.768;2022-09-12T12:25:05;100929.78;;;24.13;100.00
4972;BME280;2501;51.214;6.768;2022-09-12T12:27:47;100930.88;;;24.16;100.00
4972;BME280;2501;51.214;6.768;2022-09-12T12:36:38;100931.97;;;24.27;100.00
4972;BME280;2501;51.214;6.768;2022-09-12T12:48:43;100903.38;;;24.25;100.00
4972;BME280;2501;51.214;6.768;2022-09-12T12:51:26;100906.72;;;24.57;100.00
4972;BME280;2501;51.214;6.768;2022-09-12T12:53:57;100894.34;;;24.45;100.00
4972;BME280;2501;51.214;6.768;2022-09-12T12:56:36;100894.63;;;24.56;100.00
4972;BME280;2501;51.214;6.768;2022-09-12T12:59:20;100882.59;;;24.70;100.00
4972;BME280;2501;51.214;6.768;2022-09-12T13:01:54;100880.44;;;24.65;99.42
4972;BME280;2501;51.214;6.768;2022-09-12T13:04:26;100890.47;;;24.66;97.32
4972;BME280;2501;51.214;6.768;2022-09-12T13:06:59;100888.03;;;24.92;94.47
4972;BME280;2501;51.214;6.768;2022-09-12T13:09:32;100882.53;;;24.79;91.59
4972;BME280;2501;51.214;6.768;2022-09-12T13:12:05;100886.19;;;24.71;89.30
4972;BME280;2501;51.214;6.768;2022-09-12T13:14:53;100875.13;;;24.82;92.12
4972;BME280;2501;51.214;6.768;2022-09-12T13:17:30;100887.72;;;25.14;88.41
4972;BME280;2501;51.214;6.768;2022-09-12T13:20:18;100881.09;;;24.93;88.40
4972;BME280;2501;51.214;6.768;2022-09-12T13:22:51;100871.91;;;25.22;86.90
4972;BME280;2501;51.214;6.768;2022-09-12T13:25:28;100868.78;;;25.82;80.73
4972;BME280;2501;51.214;6.768;2022-09-12T13:28:02;100871.88;;;25.69;75.41
4972;BME280;2501;51.214;6.768;2022-09-12T13:30:34;100870.81;;;26.55;71.21
4972;BME280;2501;51.214;6.768;2022-09-12T13:33:23;100852.31;;;26.45;68.50
4972;BME280;2501;51.214;6.768;2022-09-12T13:39:08;100848.97;;;27.16;69.45
4972;BME280;2501;51.214;6.768;2022-09-12T13:41:57;100842.63;;;27.06;68.62
4972;BME280;2501;51.214;6.768;2022-09-12T13:44:31;100851.31;;;27.58;65.79
4972;BME280;2501;51.214;6.768;2022-09-12T13:47:11;100851.31;;;26.97;64.85
4972;BME280;2501;51.214;6.768;2022-09-12T13:49:42;100843.00;;;26.79;67.41
4972;BME280;2501;51.214;6.768;2022-09-12T13:52:16;100845.84;;;26.79;67.66
4972;BME280;2501;51.214;6.768;2022-09-12T13:54:49;100837.97;;;26.68;69.98
4972;BME280;2501;51.214;6.768;2022-09-12T13:57:31;100837.00;;;27.52;64.31